createdAt,value
2023-07-09T00:00:06.603Z,72.50
2023-07-09T00:00:16.008Z,72.50
2023-07-09T00:00:34.841Z,72.40
2023-07-09T00:00:44.241Z,72.40
2023-07-09T00:00:53.738Z,72.40
2023-07-09T00:01:03.153Z,72.40
2023-07-09T00:01:12.572Z,72.40
2023-07-09T00:01:21.939Z,72.40
2023-07-09T00:01:40.726Z,72.40
2023-07-09T00:01:50.195Z,72.40
2023-07-09T00:01:59.531Z,72.40
2023-07-09T00:02:08.923Z,72.40
2023-07-09T00:02:18.367Z,72.40
2023-07-09T00:02:27.674Z,72.40
2023-07-09T00:02:46.498Z,72.30
2023-07-09T00:02:55.860Z,72.30
2023-07-09T00:03:05.307Z,72.30
2023-07-09T00:03:14.659Z,72.30
2023-07-09T00:03:24.042Z,72.40
2023-07-09T00:03:33.455Z,72.30
2023-07-09T00:03:52.255Z,72.20
2023-07-09T00:04:01.608Z,72.10
2023-07-09T00:04:10.999Z,72.10
2023-07-09T00:04:20.571Z,72.00
2023-07-09T00:04:29.970Z,72.10
2023-07-09T00:04:39.118Z,72.00
2023-07-09T00:04:57.881Z,71.90
2023-07-09T00:05:07.342Z,71.80
2023-07-09T00:05:16.680Z,71.80
2023-07-09T00:05:26.069Z,71.80
2023-07-09T00:05:35.507Z,71.70
2023-07-09T00:05:44.918Z,71.70
2023-07-09T00:06:04.063Z,71.50
2023-07-09T00:06:13.101Z,71.50
2023-07-09T00:06:22.926Z,71.50
2023-07-09T00:06:31.918Z,71.50
2023-07-09T00:06:41.322Z,71.50
2023-07-09T00:06:50.714Z,71.50
2023-07-09T00:07:09.493Z,71.40
2023-07-09T00:07:18.895Z,71.40
2023-07-09T00:07:28.276Z,71.40
2023-07-09T00:07:37.658Z,71.30
2023-07-09T00:07:47.034Z,71.30
2023-07-09T00:07:56.603Z,71.30
2023-07-09T00:08:15.387Z,71.30
2023-07-09T00:08:24.775Z,71.20
2023-07-09T00:08:34.170Z,71.20
2023-07-09T00:08:43.550Z,71.20
2023-07-09T00:08:52.925Z,71.10
2023-07-09T00:09:02.340Z,71.00
2023-07-09T00:09:21.161Z,71.00
2023-07-09T00:09:30.572Z,71.00
2023-07-09T00:09:39.971Z,71.00
2023-07-09T00:09:49.381Z,71.00
2023-07-09T00:09:58.803Z,70.90
2023-07-09T00:10:08.322Z,70.90
2023-07-09T00:10:27.026Z,71.00
2023-07-09T00:10:36.436Z,71.00
2023-07-09T00:10:45.805Z,71.00
2023-07-09T00:10:55.221Z,71.00
2023-07-09T00:11:04.629Z,71.00
2023-07-09T00:11:14.030Z,71.10
2023-07-09T00:11:32.799Z,71.10
2023-07-09T00:11:42.206Z,71.10
2023-07-09T00:11:51.571Z,71.20
2023-07-09T00:12:00.938Z,71.20
2023-07-09T00:12:10.322Z,71.20
2023-07-09T00:12:19.882Z,71.30
2023-07-09T00:12:38.723Z,71.30
2023-07-09T00:12:48.103Z,71.30
2023-07-09T00:12:57.525Z,71.40
2023-07-09T00:13:06.976Z,71.40
2023-07-09T00:13:16.371Z,71.40
2023-07-09T00:13:25.799Z,71.40
2023-07-09T00:13:44.624Z,71.40
2023-07-09T00:13:54.061Z,71.40
2023-07-09T00:14:03.417Z,71.40
2023-07-09T00:14:12.834Z,71.40
2023-07-09T00:14:22.189Z,71.40
2023-07-09T00:14:31.607Z,71.40
2023-07-09T00:14:50.360Z,71.30
2023-07-09T00:14:59.770Z,71.40
2023-07-09T00:15:09.151Z,71.30
2023-07-09T00:15:18.546Z,71.40
2023-07-09T00:15:27.950Z,71.40
2023-07-09T00:15:37.352Z,71.40
2023-07-09T00:15:56.173Z,71.40
2023-07-09T00:16:05.860Z,71.50
2023-07-09T00:16:15.004Z,71.50
2023-07-09T00:16:24.400Z,71.40
2023-07-09T00:16:33.759Z,71.30
2023-07-09T00:16:43.164Z,71.30
2023-07-09T00:17:01.852Z,71.40
2023-07-09T00:17:11.235Z,71.40
2023-07-09T00:17:20.643Z,71.40
2023-07-09T00:17:30.079Z,71.40
2023-07-09T00:17:39.436Z,71.30
2023-07-09T00:17:48.885Z,71.40
2023-07-09T00:18:03.092Z,71.40
2023-07-09T00:18:12.430Z,71.40
2023-07-09T00:18:21.835Z,71.40
2023-07-09T00:18:31.215Z,71.30
2023-07-09T00:18:40.638Z,71.30
2023-07-09T00:18:50.413Z,71.30
2023-07-09T00:19:08.821Z,71.40
2023-07-09T00:19:18.221Z,71.40
2023-07-09T00:19:27.611Z,71.40
2023-07-09T00:19:36.984Z,71.40
2023-07-09T00:19:46.392Z,71.40
2023-07-09T00:19:55.778Z,71.40
2023-07-09T00:20:14.538Z,71.40
2023-07-09T00:20:23.923Z,71.30
2023-07-09T00:20:33.311Z,71.30
2023-07-09T00:20:42.693Z,71.30
2023-07-09T00:20:52.124Z,71.40
2023-07-09T00:21:01.512Z,71.30
2023-07-09T00:21:20.278Z,71.30
2023-07-09T00:21:29.664Z,71.30
2023-07-09T00:21:39.061Z,71.30
2023-07-09T00:21:48.464Z,71.30
2023-07-09T00:21:57.861Z,71.20
2023-07-09T00:22:07.260Z,71.30
2023-07-09T00:22:26.012Z,71.30
2023-07-09T00:22:35.415Z,71.20
2023-07-09T00:22:44.780Z,71.20
2023-07-09T00:22:54.165Z,71.10
2023-07-09T00:23:03.603Z,71.20
2023-07-09T00:23:12.948Z,71.10
2023-07-09T00:23:31.746Z,71.10
2023-07-09T00:23:41.168Z,71.10
2023-07-09T00:23:50.504Z,71.10
2023-07-09T00:23:59.956Z,71.00
2023-07-09T00:24:09.349Z,71.10
2023-07-09T00:24:18.717Z,71.00
2023-07-09T00:24:37.497Z,71.00
2023-07-09T00:24:46.887Z,71.00
2023-07-09T00:24:56.263Z,71.00
2023-07-09T00:25:05.655Z,71.00
2023-07-09T00:25:15.043Z,71.00
2023-07-09T00:25:24.432Z,71.00
2023-07-09T00:25:43.229Z,71.00
2023-07-09T00:25:52.791Z,70.90
2023-07-09T00:26:02.467Z,70.90
2023-07-09T00:26:11.696Z,70.90
2023-07-09T00:26:21.075Z,70.90
2023-07-09T00:26:30.513Z,70.80
2023-07-09T00:26:49.463Z,70.90
2023-07-09T00:26:58.623Z,70.90
2023-07-09T00:27:08.286Z,70.90
2023-07-09T00:27:17.658Z,70.90
2023-07-09T00:27:27.039Z,71.00
2023-07-09T00:27:36.533Z,70.90
2023-07-09T00:27:55.474Z,71.00
2023-07-09T00:28:04.915Z,70.90
2023-07-09T00:28:14.335Z,71.00
2023-07-09T00:28:23.714Z,71.00
2023-07-09T00:28:33.084Z,71.00
2023-07-09T00:28:42.470Z,71.00
2023-07-09T00:29:01.264Z,71.10
2023-07-09T00:29:10.667Z,71.10
2023-07-09T00:29:20.049Z,71.10
2023-07-09T00:29:29.441Z,71.10
2023-07-09T00:29:38.838Z,71.10
2023-07-09T00:29:48.241Z,71.10
2023-07-09T00:30:07.054Z,71.10
2023-07-09T00:30:16.473Z,71.20
2023-07-09T00:30:25.879Z,71.10
2023-07-09T00:30:35.254Z,71.10
2023-07-09T00:30:44.637Z,71.00
2023-07-09T00:30:54.035Z,71.00
2023-07-09T00:31:12.840Z,71.00
2023-07-09T00:31:22.233Z,71.00
2023-07-09T00:31:31.689Z,70.90
2023-07-09T00:31:41.091Z,70.90
2023-07-09T00:31:50.660Z,70.80
2023-07-09T00:31:59.880Z,70.80
2023-07-09T00:32:18.660Z,70.70
2023-07-09T00:32:28.053Z,70.70
2023-07-09T00:32:37.375Z,70.70
2023-07-09T00:32:46.833Z,70.70
2023-07-09T00:32:56.216Z,70.70
2023-07-09T00:33:05.600Z,70.70
2023-07-09T00:33:24.354Z,70.70
2023-07-09T00:33:33.735Z,70.70
2023-07-09T00:33:43.107Z,70.70
2023-07-09T00:33:52.481Z,70.70
2023-07-09T00:34:01.874Z,70.70
2023-07-09T00:34:11.250Z,70.70
2023-07-09T00:34:30.046Z,70.70
2023-07-09T00:34:39.434Z,70.80
2023-07-09T00:34:48.821Z,70.80
2023-07-09T00:34:58.207Z,70.80
2023-07-09T00:35:07.603Z,70.90
2023-07-09T00:35:16.993Z,70.90
2023-07-09T00:35:35.785Z,71.00
2023-07-09T00:35:45.207Z,71.00
2023-07-09T00:35:54.591Z,71.00
2023-07-09T00:36:04.127Z,71.10
2023-07-09T00:36:13.368Z,71.10
2023-07-09T00:36:22.742Z,71.00
2023-07-09T00:36:41.549Z,71.00
2023-07-09T00:36:50.931Z,71.10
2023-07-09T00:37:00.349Z,71.20
2023-07-09T00:37:09.757Z,71.10
2023-07-09T00:37:19.156Z,71.10
2023-07-09T00:37:28.572Z,71.10
2023-07-09T00:37:47.482Z,71.10
2023-07-09T00:37:56.882Z,71.20
2023-07-09T00:38:06.345Z,71.30
2023-07-09T00:38:15.762Z,71.30
2023-07-09T00:38:25.152Z,71.40
2023-07-09T00:38:34.556Z,71.50
2023-07-09T00:38:53.357Z,71.70
2023-07-09T00:39:02.819Z,71.80
2023-07-09T00:39:12.220Z,72.00
2023-07-09T00:39:21.686Z,72.10
2023-07-09T00:39:31.013Z,72.20
2023-07-09T00:39:40.398Z,72.50
2023-07-09T00:39:59.232Z,72.80
2023-07-09T00:40:08.578Z,73.10
2023-07-09T00:40:17.989Z,73.20
2023-07-09T00:40:27.444Z,73.30
2023-07-09T00:40:36.838Z,73.50
2023-07-09T00:40:46.237Z,73.60
2023-07-09T00:41:05.057Z,73.80
2023-07-09T00:41:14.428Z,74.00
2023-07-09T00:41:23.814Z,74.10
2023-07-09T00:41:33.404Z,74.30
2023-07-09T00:41:42.837Z,74.30
2023-07-09T00:41:52.372Z,74.60
2023-07-09T00:42:11.062Z,75.10
2023-07-09T00:42:20.468Z,75.40
2023-07-09T00:42:29.884Z,75.50
2023-07-09T00:42:39.265Z,75.70
2023-07-09T00:42:48.655Z,75.90
2023-07-09T00:42:58.054Z,76.00
2023-07-09T00:43:16.888Z,76.30
2023-07-09T00:43:26.269Z,76.40
2023-07-09T00:43:35.669Z,76.60
2023-07-09T00:43:45.056Z,76.80
2023-07-09T00:43:54.430Z,76.90
2023-07-09T00:44:03.829Z,77.10
2023-07-09T00:44:22.633Z,77.40
2023-07-09T00:44:32.003Z,77.60
2023-07-09T00:44:41.388Z,77.70
2023-07-09T00:44:50.755Z,78.00
2023-07-09T00:45:00.127Z,78.10
2023-07-09T00:45:09.513Z,78.20
2023-07-09T00:45:28.281Z,78.50
2023-07-09T00:45:37.665Z,78.60
2023-07-09T00:45:47.106Z,78.70
2023-07-09T00:45:56.534Z,78.70
2023-07-09T00:46:06.110Z,78.80
2023-07-09T00:46:15.298Z,78.80
2023-07-09T00:46:34.080Z,78.80
2023-07-09T00:46:43.563Z,78.90
2023-07-09T00:46:52.873Z,78.90
2023-07-09T00:47:02.422Z,78.90
2023-07-09T00:47:11.669Z,78.90
2023-07-09T00:47:21.095Z,78.90
2023-07-09T00:47:39.963Z,78.80
2023-07-09T00:47:49.340Z,78.80
2023-07-09T00:47:58.776Z,78.70
2023-07-09T00:48:08.194Z,78.70
2023-07-09T00:48:17.552Z,78.70
2023-07-09T00:48:26.978Z,78.60
2023-07-09T00:48:45.800Z,78.40
2023-07-09T00:48:55.176Z,78.30
2023-07-09T00:49:04.556Z,78.30
2023-07-09T00:49:13.954Z,78.20
2023-07-09T00:49:23.327Z,78.20
2023-07-09T00:49:32.773Z,78.10
2023-07-09T00:49:51.521Z,77.80
2023-07-09T00:50:00.919Z,77.70
2023-07-09T00:50:10.323Z,77.60
2023-07-09T00:50:19.701Z,77.50
2023-07-09T00:50:29.114Z,77.30
2023-07-09T00:50:38.506Z,77.30
2023-07-09T00:50:57.282Z,77.10
2023-07-09T00:51:06.689Z,77.10
2023-07-09T00:51:16.219Z,77.00
2023-07-09T00:51:25.466Z,76.90
2023-07-09T00:51:34.958Z,77.00
2023-07-09T00:51:44.313Z,76.90
2023-07-09T00:52:03.135Z,76.70
2023-07-09T00:52:12.561Z,76.60
2023-07-09T00:52:21.933Z,76.50
2023-07-09T00:52:31.324Z,76.40
2023-07-09T00:52:40.703Z,76.40
2023-07-09T00:52:50.080Z,76.30
2023-07-09T00:53:08.923Z,76.20
2023-07-09T00:53:18.279Z,76.10
2023-07-09T00:53:27.668Z,76.00
2023-07-09T00:53:37.050Z,75.90
2023-07-09T00:53:46.481Z,75.90
2023-07-09T00:53:55.863Z,75.80
2023-07-09T00:54:14.654Z,75.80
2023-07-09T00:54:24.052Z,75.60
2023-07-09T00:54:33.443Z,75.70
2023-07-09T00:54:42.868Z,75.60
2023-07-09T00:54:52.248Z,75.60
2023-07-09T00:55:01.632Z,75.50
2023-07-09T00:55:20.621Z,75.40
2023-07-09T00:55:30.032Z,75.40
2023-07-09T00:55:39.406Z,75.40
2023-07-09T00:55:48.802Z,75.40
2023-07-09T00:55:58.192Z,75.40
2023-07-09T00:56:07.575Z,75.40
2023-07-09T00:56:26.399Z,75.50
2023-07-09T00:56:35.824Z,75.60
2023-07-09T00:56:45.229Z,75.60
2023-07-09T00:56:54.624Z,75.70
2023-07-09T00:57:04.025Z,75.70
2023-07-09T00:57:13.413Z,75.80
2023-07-09T00:57:32.195Z,76.00
2023-07-09T00:57:41.582Z,76.20
2023-07-09T00:57:51.068Z,76.30
2023-07-09T00:58:00.510Z,76.30
2023-07-09T00:58:09.930Z,76.50
2023-07-09T00:58:19.321Z,76.60
2023-07-09T00:58:38.120Z,76.90
2023-07-09T00:58:47.524Z,76.90
2023-07-09T00:58:56.923Z,77.10
2023-07-09T00:59:06.306Z,77.20
2023-07-09T00:59:15.688Z,77.50
2023-07-09T00:59:25.096Z,77.60
2023-07-09T00:59:43.853Z,77.90
2023-07-09T00:59:53.256Z,78.10
2023-07-09T01:00:02.640Z,78.20
2023-07-09T01:00:12.047Z,78.40
2023-07-09T01:00:21.418Z,78.60
2023-07-09T01:00:30.820Z,78.80
2023-07-09T01:00:49.590Z,79.10
2023-07-09T01:00:58.987Z,79.30
2023-07-09T01:01:08.407Z,79.40
2023-07-09T01:01:17.835Z,79.70
2023-07-09T01:01:27.173Z,79.80
2023-07-09T01:01:36.586Z,80.00
2023-07-09T01:01:55.354Z,80.30
2023-07-09T01:02:04.725Z,80.50
2023-07-09T01:02:14.133Z,80.60
2023-07-09T01:02:23.566Z,80.70
2023-07-09T01:02:33.018Z,80.90
2023-07-09T01:02:42.451Z,81.00
2023-07-09T01:03:01.323Z,81.40
2023-07-09T01:03:10.668Z,81.60
2023-07-09T01:03:20.081Z,81.70
2023-07-09T01:03:29.466Z,81.90
2023-07-09T01:03:38.897Z,82.10
2023-07-09T01:03:48.304Z,82.20
2023-07-09T01:04:07.344Z,82.70
2023-07-09T01:04:16.725Z,82.80
2023-07-09T01:04:26.122Z,83.00
2023-07-09T01:04:35.524Z,83.30
2023-07-09T01:04:44.950Z,83.50
2023-07-09T01:04:54.333Z,83.60
2023-07-09T01:05:13.130Z,84.00
2023-07-09T01:05:22.503Z,84.10
2023-07-09T01:05:31.895Z,84.40
2023-07-09T01:05:41.327Z,84.50
2023-07-09T01:05:50.719Z,84.70
2023-07-09T01:06:00.480Z,84.90
2023-07-09T01:06:18.888Z,85.20
2023-07-09T01:06:28.281Z,85.30
2023-07-09T01:06:37.732Z,85.50
2023-07-09T01:06:47.111Z,85.60
2023-07-09T01:06:56.533Z,85.70
2023-07-09T01:07:05.927Z,85.80
2023-07-09T01:07:24.762Z,86.00
2023-07-09T01:07:34.196Z,86.00
2023-07-09T01:07:43.562Z,86.10
2023-07-09T01:07:52.929Z,86.20
2023-07-09T01:08:02.340Z,86.20
2023-07-09T01:08:11.802Z,86.20
2023-07-09T01:08:30.564Z,86.40
2023-07-09T01:08:40.198Z,86.60
2023-07-09T01:08:49.615Z,86.70
2023-07-09T01:08:59.180Z,86.80
2023-07-09T01:09:09.335Z,86.80
2023-07-09T01:09:18.823Z,87.00
2023-07-09T01:09:37.609Z,87.10
2023-07-09T01:09:47.063Z,87.10
2023-07-09T01:09:56.493Z,87.20
2023-07-09T01:10:05.892Z,87.30
2023-07-09T01:10:15.314Z,87.30
2023-07-09T01:10:24.680Z,87.40
2023-07-09T01:10:43.452Z,87.50
2023-07-09T01:10:52.853Z,87.60
2023-07-09T01:11:02.246Z,87.70
2023-07-09T01:11:11.639Z,87.80
2023-07-09T01:11:21.029Z,87.70
2023-07-09T01:11:30.423Z,87.90
2023-07-09T01:11:49.222Z,88.00
2023-07-09T01:11:58.611Z,88.10
2023-07-09T01:12:07.990Z,88.20
2023-07-09T01:12:17.396Z,88.20
2023-07-09T01:12:26.797Z,88.20
2023-07-09T01:12:36.185Z,88.30
2023-07-09T01:12:54.969Z,88.50
2023-07-09T01:13:04.388Z,88.50
2023-07-09T01:13:13.785Z,88.50
2023-07-09T01:13:23.238Z,88.50
2023-07-09T01:13:32.720Z,88.60
2023-07-09T01:13:42.092Z,88.70
2023-07-09T01:14:00.875Z,88.80
2023-07-09T01:14:10.317Z,88.90
2023-07-09T01:14:19.650Z,89.00
2023-07-09T01:14:29.063Z,89.10
2023-07-09T01:14:38.427Z,89.10
2023-07-09T01:14:47.810Z,89.30
2023-07-09T01:15:06.563Z,89.50
2023-07-09T01:15:15.959Z,89.50
2023-07-09T01:15:25.336Z,89.60
2023-07-09T01:15:34.767Z,89.70
2023-07-09T01:15:44.162Z,89.70
2023-07-09T01:15:53.540Z,89.80
2023-07-09T01:16:12.337Z,89.80
2023-07-09T01:16:21.745Z,89.60
2023-07-09T01:16:31.134Z,89.70
2023-07-09T01:16:40.477Z,89.70
2023-07-09T01:16:49.943Z,89.70
2023-07-09T01:16:59.348Z,89.60
2023-07-09T01:17:18.260Z,89.50
2023-07-09T01:17:27.673Z,89.40
2023-07-09T01:17:37.087Z,89.30
2023-07-09T01:17:46.504Z,89.10
2023-07-09T01:17:55.909Z,88.90
2023-07-09T01:18:05.289Z,88.90
2023-07-09T01:18:24.055Z,88.50
2023-07-09T01:18:33.465Z,88.30
2023-07-09T01:18:42.851Z,88.10
2023-07-09T01:18:52.253Z,87.80
2023-07-09T01:19:01.701Z,87.60
2023-07-09T01:19:11.026Z,87.40
2023-07-09T01:19:29.779Z,86.90
2023-07-09T01:19:39.171Z,86.70
2023-07-09T01:19:48.546Z,86.40
2023-07-09T01:19:57.929Z,86.20
2023-07-09T01:20:07.327Z,85.90
2023-07-09T01:20:16.720Z,85.70
2023-07-09T01:20:35.555Z,85.30
2023-07-09T01:20:44.923Z,85.10
2023-07-09T01:20:54.317Z,84.90
2023-07-09T01:21:03.678Z,84.80
2023-07-09T01:21:13.076Z,84.60
2023-07-09T01:21:22.465Z,84.40
2023-07-09T01:21:41.250Z,84.10
2023-07-09T01:21:50.631Z,83.90
2023-07-09T01:22:00.085Z,83.70
2023-07-09T01:22:09.488Z,83.60
2023-07-09T01:22:18.888Z,83.30
2023-07-09T01:22:28.284Z,83.20
2023-07-09T01:22:47.060Z,82.80
2023-07-09T01:22:56.977Z,82.50
2023-07-09T01:23:06.458Z,82.40
2023-07-09T01:23:15.899Z,82.20
2023-07-09T01:23:25.258Z,82.00
2023-07-09T01:23:34.650Z,82.00
2023-07-09T01:23:53.439Z,81.80
2023-07-09T01:24:02.837Z,81.60
2023-07-09T01:24:12.205Z,81.40
2023-07-09T01:24:21.595Z,81.40
2023-07-09T01:24:31.004Z,81.30
2023-07-09T01:24:40.396Z,81.20
2023-07-09T01:24:59.182Z,81.00
2023-07-09T01:25:08.603Z,80.90
2023-07-09T01:25:18.001Z,80.70
2023-07-09T01:25:27.410Z,80.60
2023-07-09T01:25:36.799Z,80.50
2023-07-09T01:25:46.204Z,80.40
2023-07-09T01:26:05.506Z,80.20
2023-07-09T01:26:14.472Z,80.10
2023-07-09T01:26:23.850Z,80.00
2023-07-09T01:26:33.245Z,79.80
2023-07-09T01:26:42.630Z,79.80
2023-07-09T01:26:52.036Z,79.70
2023-07-09T01:27:10.812Z,79.40
2023-07-09T01:27:20.253Z,79.30
2023-07-09T01:27:29.639Z,79.20
2023-07-09T01:27:39.018Z,79.20
2023-07-09T01:27:48.415Z,79.10
2023-07-09T01:27:57.806Z,79.00
2023-07-09T01:28:16.685Z,78.90
2023-07-09T01:28:26.080Z,78.80
2023-07-09T01:28:35.488Z,78.70
2023-07-09T01:28:44.877Z,78.70
2023-07-09T01:28:54.246Z,78.60
2023-07-09T01:29:03.636Z,78.50
2023-07-09T01:29:22.396Z,78.40
2023-07-09T01:29:31.775Z,78.30
2023-07-09T01:29:41.180Z,78.30
2023-07-09T01:29:50.546Z,78.20
2023-07-09T01:29:59.961Z,78.10
2023-07-09T01:30:09.363Z,78.00
2023-07-09T01:30:28.152Z,77.90
2023-07-09T01:30:37.540Z,77.80
2023-07-09T01:30:46.942Z,77.70
2023-07-09T01:30:56.338Z,77.60
2023-07-09T01:31:05.803Z,77.50
2023-07-09T01:31:15.151Z,77.50
2023-07-09T01:31:33.988Z,77.30
2023-07-09T01:31:43.362Z,77.40
2023-07-09T01:31:52.767Z,77.30
2023-07-09T01:32:02.095Z,77.20
2023-07-09T01:32:11.498Z,77.20
2023-07-09T01:32:20.936Z,77.10
2023-07-09T01:32:39.697Z,77.00
2023-07-09T01:32:49.031Z,76.90
2023-07-09T01:32:58.424Z,76.80
2023-07-09T01:33:07.801Z,76.70
2023-07-09T01:33:17.163Z,76.70
2023-07-09T01:33:26.535Z,76.70
2023-07-09T01:33:45.301Z,76.60
2023-07-09T01:33:54.661Z,76.50
2023-07-09T01:34:04.049Z,76.40
2023-07-09T01:34:13.428Z,76.40
2023-07-09T01:34:22.823Z,76.30
2023-07-09T01:34:32.229Z,76.30
2023-07-09T01:34:51.003Z,76.20
2023-07-09T01:35:01.046Z,76.00
2023-07-09T01:35:10.504Z,76.00
2023-07-09T01:35:19.882Z,76.00
2023-07-09T01:35:29.271Z,76.00
2023-07-09T01:35:38.643Z,76.00
2023-07-09T01:35:57.405Z,76.00
2023-07-09T01:36:06.801Z,76.00
2023-07-09T01:36:16.194Z,75.90
2023-07-09T01:36:25.751Z,75.90
2023-07-09T01:36:35.144Z,75.90
2023-07-09T01:36:44.516Z,75.90
2023-07-09T01:37:03.545Z,75.80
2023-07-09T01:37:12.939Z,75.80
2023-07-09T01:37:22.319Z,75.80
2023-07-09T01:37:31.721Z,75.70
2023-07-09T01:37:41.101Z,75.70
2023-07-09T01:37:50.479Z,75.70
2023-07-09T01:38:09.270Z,75.60
2023-07-09T01:38:18.707Z,75.60
2023-07-09T01:38:28.068Z,75.60
2023-07-09T01:38:37.440Z,75.60
2023-07-09T01:38:46.818Z,75.50
2023-07-09T01:38:56.191Z,75.50
2023-07-09T01:39:15.014Z,75.50
2023-07-09T01:39:24.414Z,75.50
2023-07-09T01:39:33.793Z,75.40
2023-07-09T01:39:43.197Z,75.40
2023-07-09T01:39:52.574Z,75.40
2023-07-09T01:40:02.050Z,75.40
2023-07-09T01:40:29.893Z,75.40
2023-07-09T01:40:32.758Z,75.30
2023-07-09T01:40:39.883Z,75.30
2023-07-09T01:40:49.003Z,75.40
2023-07-09T01:40:58.369Z,75.20
2023-07-09T01:41:07.795Z,75.20
2023-07-09T01:41:26.565Z,75.30
2023-07-09T01:41:35.990Z,75.20
2023-07-09T01:41:45.368Z,75.20
2023-07-09T01:41:54.802Z,75.20
2023-07-09T01:42:04.206Z,75.20
2023-07-09T01:42:13.603Z,75.20
2023-07-09T01:42:32.413Z,75.20
2023-07-09T01:42:41.815Z,75.10
2023-07-09T01:42:51.190Z,75.20
2023-07-09T01:43:00.576Z,75.10
2023-07-09T01:43:09.966Z,75.20
2023-07-09T01:43:19.366Z,75.20
2023-07-09T01:43:38.140Z,75.30
2023-07-09T01:43:47.560Z,75.40
2023-07-09T01:43:56.955Z,75.40
2023-07-09T01:44:06.364Z,75.50
2023-07-09T01:44:15.749Z,75.50
2023-07-09T01:44:25.148Z,75.60
2023-07-09T01:44:43.956Z,75.80
2023-07-09T01:44:53.349Z,75.90
2023-07-09T01:45:02.735Z,76.10
2023-07-09T01:45:12.119Z,76.20
2023-07-09T01:45:21.512Z,76.30
2023-07-09T01:45:30.926Z,76.40
2023-07-09T01:45:49.678Z,76.60
2023-07-09T01:45:59.081Z,76.70
2023-07-09T01:46:08.468Z,77.00
2023-07-09T01:46:17.864Z,77.10
2023-07-09T01:46:27.294Z,77.20
2023-07-09T01:46:36.713Z,77.30
2023-07-09T01:46:55.514Z,77.70
2023-07-09T01:47:04.937Z,77.90
2023-07-09T01:47:14.320Z,77.90
2023-07-09T01:47:23.858Z,78.10
2023-07-09T01:47:33.109Z,78.30
2023-07-09T01:47:42.627Z,78.40
2023-07-09T01:48:01.329Z,78.60
2023-07-09T01:48:10.714Z,78.70
2023-07-09T01:48:20.089Z,78.90
2023-07-09T01:48:29.471Z,78.90
2023-07-09T01:48:38.845Z,79.00
2023-07-09T01:48:48.238Z,79.10
2023-07-09T01:49:07.077Z,79.10
2023-07-09T01:49:16.487Z,79.20
2023-07-09T01:49:25.881Z,79.20
2023-07-09T01:49:35.550Z,79.20
2023-07-09T01:49:44.969Z,79.10
2023-07-09T01:49:54.360Z,79.00
2023-07-09T01:50:13.177Z,79.00
2023-07-09T01:50:22.542Z,79.00
2023-07-09T01:50:32.028Z,79.00
2023-07-09T01:50:41.915Z,79.00
2023-07-09T01:50:51.408Z,79.00
2023-07-09T01:51:00.819Z,78.90
2023-07-09T01:51:19.700Z,78.70
2023-07-09T01:51:29.039Z,78.60
2023-07-09T01:51:38.445Z,78.50
2023-07-09T01:51:47.824Z,78.40
2023-07-09T01:51:57.220Z,78.30
2023-07-09T01:52:06.631Z,78.30
2023-07-09T01:52:25.415Z,78.10
2023-07-09T01:52:34.794Z,78.00
2023-07-09T01:52:44.176Z,78.00
2023-07-09T01:52:53.575Z,77.90
2023-07-09T01:53:02.951Z,77.80
2023-07-09T01:53:12.339Z,77.70
2023-07-09T01:53:31.829Z,77.60
2023-07-09T01:53:41.222Z,77.50
2023-07-09T01:53:50.628Z,77.50
2023-07-09T01:54:00.002Z,77.40
2023-07-09T01:54:09.385Z,77.30
2023-07-09T01:54:18.756Z,77.30
2023-07-09T01:54:37.582Z,77.20
2023-07-09T01:54:46.952Z,77.20
2023-07-09T01:54:56.371Z,77.10
2023-07-09T01:55:05.760Z,77.10
2023-07-09T01:55:15.132Z,77.00
2023-07-09T01:55:24.513Z,77.00
2023-07-09T01:55:43.305Z,76.90
2023-07-09T01:55:52.708Z,76.90
2023-07-09T01:56:02.514Z,76.80
2023-07-09T01:56:11.462Z,76.80
2023-07-09T01:56:20.842Z,76.80
2023-07-09T01:56:30.240Z,76.70
2023-07-09T01:56:49.038Z,76.60
2023-07-09T01:56:58.423Z,76.60
2023-07-09T01:57:07.826Z,76.50
2023-07-09T01:57:17.227Z,76.50
2023-07-09T01:57:26.615Z,76.50
2023-07-09T01:57:35.994Z,76.50
2023-07-09T01:57:54.761Z,76.40
2023-07-09T01:58:04.158Z,76.30
2023-07-09T01:58:13.576Z,76.30
2023-07-09T01:58:22.993Z,76.30
2023-07-09T01:58:32.381Z,76.20
2023-07-09T01:58:41.784Z,76.20
2023-07-09T01:59:00.541Z,76.10
2023-07-09T01:59:09.924Z,76.00
2023-07-09T01:59:19.313Z,76.00
2023-07-09T01:59:28.723Z,76.00
2023-07-09T01:59:38.114Z,75.90
2023-07-09T01:59:47.501Z,76.00
2023-07-09T02:00:06.282Z,75.90
2023-07-09T02:00:15.658Z,75.80
2023-07-09T02:00:25.046Z,75.80
2023-07-09T02:00:34.439Z,75.70
2023-07-09T02:00:43.856Z,75.70
2023-07-09T02:00:53.296Z,75.60
2023-07-09T02:01:12.118Z,75.50
2023-07-09T02:01:21.471Z,75.50
2023-07-09T02:01:30.858Z,75.40
2023-07-09T02:01:40.229Z,75.40
2023-07-09T02:01:49.596Z,75.40
2023-07-09T02:01:59.014Z,75.40
2023-07-09T02:02:17.924Z,75.40
2023-07-09T02:02:27.365Z,75.40
2023-07-09T02:02:36.776Z,75.40
2023-07-09T02:02:46.170Z,75.30
2023-07-09T02:02:55.721Z,75.40
2023-07-09T02:03:05.105Z,75.30
2023-07-09T02:03:23.804Z,75.30
2023-07-09T02:03:33.183Z,75.20
2023-07-09T02:03:42.578Z,75.10
2023-07-09T02:03:52.002Z,75.20
2023-07-09T02:04:01.401Z,75.20
2023-07-09T02:04:10.781Z,75.10
2023-07-09T02:04:29.640Z,75.10
2023-07-09T02:04:38.994Z,74.90
2023-07-09T02:04:48.471Z,75.00
2023-07-09T02:04:57.827Z,75.00
2023-07-09T02:05:07.181Z,75.00
2023-07-09T02:05:16.591Z,74.90
2023-07-09T02:05:35.360Z,74.80
2023-07-09T02:05:44.742Z,74.80
2023-07-09T02:05:54.136Z,74.70
2023-07-09T02:06:03.945Z,74.70
2023-07-09T02:06:12.976Z,74.70
2023-07-09T02:06:22.356Z,74.60
2023-07-09T02:06:41.168Z,74.50
2023-07-09T02:06:50.568Z,74.50
2023-07-09T02:06:59.965Z,74.40
2023-07-09T02:07:09.323Z,74.40
2023-07-09T02:07:18.720Z,74.30
2023-07-09T02:07:28.149Z,74.30
2023-07-09T02:07:46.968Z,74.30
2023-07-09T02:07:56.377Z,74.20
2023-07-09T02:08:05.780Z,74.20
2023-07-09T02:08:15.149Z,74.20
2023-07-09T02:08:24.591Z,74.10
2023-07-09T02:08:33.957Z,74.20
2023-07-09T02:08:52.723Z,74.20
2023-07-09T02:09:02.111Z,74.20
2023-07-09T02:09:11.502Z,74.20
2023-07-09T02:09:20.886Z,74.20
2023-07-09T02:09:30.297Z,74.10
2023-07-09T02:09:39.683Z,74.10
2023-07-09T02:09:58.501Z,74.10
2023-07-09T02:10:07.896Z,74.10
2023-07-09T02:10:17.311Z,74.10
2023-07-09T02:10:26.751Z,74.10
2023-07-09T02:10:36.114Z,74.10
2023-07-09T02:10:45.511Z,74.10
2023-07-09T02:11:04.273Z,74.10
2023-07-09T02:11:13.679Z,74.10
2023-07-09T02:11:23.056Z,74.10
2023-07-09T02:11:32.434Z,74.10
2023-07-09T02:11:41.819Z,74.20
2023-07-09T02:11:51.188Z,74.10
2023-07-09T02:12:09.983Z,74.10
2023-07-09T02:12:19.367Z,74.20
2023-07-09T02:12:28.747Z,74.10
2023-07-09T02:12:38.143Z,74.20
2023-07-09T02:12:47.510Z,74.20
2023-07-09T02:12:56.883Z,74.20
2023-07-09T02:13:15.759Z,74.20
2023-07-09T02:13:25.175Z,74.20
2023-07-09T02:13:34.591Z,74.20
2023-07-09T02:13:43.979Z,74.10
2023-07-09T02:13:53.360Z,74.10
2023-07-09T02:14:02.754Z,74.10
2023-07-09T02:14:21.460Z,74.00
2023-07-09T02:14:30.860Z,74.10
2023-07-09T02:14:40.259Z,74.10
2023-07-09T02:14:49.653Z,74.00
2023-07-09T02:14:59.048Z,74.00
2023-07-09T02:15:08.440Z,74.00
2023-07-09T02:15:27.238Z,74.00
2023-07-09T02:15:36.626Z,73.90
2023-07-09T02:15:46.000Z,73.90
2023-07-09T02:15:55.374Z,73.90
2023-07-09T02:16:05.007Z,73.90
2023-07-09T02:16:14.133Z,73.80
2023-07-09T02:16:32.923Z,73.80
2023-07-09T02:16:42.354Z,73.80
2023-07-09T02:16:51.714Z,73.80
2023-07-09T02:17:01.127Z,73.80
2023-07-09T02:17:10.839Z,73.80
2023-07-09T02:17:20.189Z,73.70
2023-07-09T02:17:38.937Z,73.70
2023-07-09T02:17:48.383Z,73.70
2023-07-09T02:17:57.710Z,73.70
2023-07-09T02:18:07.200Z,73.70
2023-07-09T02:18:16.594Z,73.70
2023-07-09T02:18:30.259Z,73.70
2023-07-09T02:18:39.661Z,73.70
2023-07-09T02:18:49.064Z,73.70
2023-07-09T02:18:58.485Z,73.60
2023-07-09T02:19:07.907Z,73.60
2023-07-09T02:19:17.594Z,73.60
2023-07-09T02:19:36.551Z,73.60
2023-07-09T02:19:46.006Z,73.60
2023-07-09T02:19:55.391Z,73.60
2023-07-09T02:20:04.771Z,73.60
2023-07-09T02:20:14.244Z,73.60
2023-07-09T02:20:23.551Z,73.60
2023-07-09T02:20:42.329Z,73.60
2023-07-09T02:20:51.707Z,73.60
2023-07-09T02:21:01.098Z,73.70
2023-07-09T02:21:10.477Z,73.70